createdAt,value
2023-02-13T00:00:12.827Z,33.92
2023-02-13T00:01:12.796Z,30.03
2023-02-13T00:02:12.809Z,29.27
2023-02-13T00:03:12.762Z,26.90
2023-02-13T00:55:26.679Z,25.00
2023-02-13T00:56:27.547Z,25.00
2023-02-13T00:57:27.508Z,25.00
2023-02-13T00:58:27.516Z,25.00
2023-02-13T00:59:27.429Z,25.00
2023-02-13T01:00:27.401Z,25.00
2023-02-13T01:01:27.402Z,0.00
2023-02-13T01:02:27.337Z,0.00
2023-02-13T01:03:27.343Z,0.00
2023-02-13T01:04:27.320Z,0.00
2023-02-13T01:05:27.243Z,0.00
2023-02-13T01:06:27.202Z,0.00
2023-02-13T01:07:27.183Z,1.84
2023-02-13T01:08:27.155Z,18.26
2023-02-13T01:09:27.104Z,24.99
2023-02-13T01:10:27.074Z,25.00
2023-02-13T01:11:27.067Z,26.56
2023-02-13T01:12:27.008Z,25.00
2023-02-13T01:13:27.525Z,25.72
2023-02-13T01:14:26.941Z,25.30
2023-02-13T01:15:26.910Z,25.71
2023-02-13T01:16:26.917Z,28.31
2023-02-13T01:17:26.849Z,25.65
2023-02-13T01:18:26.821Z,25.00
2023-02-13T01:19:26.789Z,24.79
2023-02-13T01:20:26.755Z,25.00
2023-02-13T01:21:26.727Z,25.00
2023-02-13T01:22:26.693Z,30.58
2023-02-13T01:23:26.659Z,25.00
2023-02-13T01:24:26.634Z,25.73
2023-02-13T01:25:26.595Z,24.96
2023-02-13T01:26:26.580Z,25.00
2023-02-13T01:27:26.560Z,29.86
2023-02-13T01:28:26.626Z,25.87
2023-02-13T01:29:26.462Z,27.59
2023-02-13T01:30:26.430Z,29.63
2023-02-13T01:31:26.539Z,30.46
2023-02-13T01:32:26.413Z,27.83
2023-02-13T01:33:26.357Z,30.69
2023-02-13T01:34:26.318Z,28.46
2023-02-13T01:35:26.272Z,29.95
2023-02-13T01:36:26.265Z,27.49
2023-02-13T01:37:26.227Z,32.74
2023-02-13T01:38:26.175Z,26.28
2023-02-13T01:39:26.162Z,26.90
2023-02-13T01:40:26.098Z,27.95
2023-02-13T01:41:26.072Z,30.21
2023-02-13T01:42:26.040Z,27.92
2023-02-13T01:43:26.037Z,25.63
2023-02-13T01:44:26.049Z,26.21
2023-02-13T01:45:25.960Z,28.75
2023-02-13T01:46:26.013Z,29.05
2023-02-13T01:47:26.029Z,29.44
2023-02-13T01:48:25.877Z,28.04
2023-02-13T01:49:25.873Z,25.80
2023-02-13T01:50:25.813Z,28.14
2023-02-13T01:51:25.793Z,26.04
2023-02-13T01:52:25.797Z,27.40
2023-02-13T01:53:25.761Z,28.41
2023-02-13T01:54:25.718Z,29.85
2023-02-13T01:55:25.679Z,28.61
2023-02-13T01:56:25.646Z,26.40
2023-02-13T01:57:25.651Z,30.73
2023-02-13T01:58:25.589Z,29.70
2023-02-13T01:59:25.587Z,26.77
2023-02-13T02:00:25.528Z,27.42
2023-02-13T02:01:25.554Z,28.22
2023-02-13T02:02:25.785Z,28.78
2023-02-13T02:03:25.437Z,30.75
2023-02-13T02:04:25.425Z,26.81
2023-02-13T02:05:25.361Z,28.11
2023-02-13T02:06:25.328Z,26.20
2023-02-13T02:07:25.297Z,26.46
2023-02-13T02:08:28.030Z,28.20
2023-02-13T02:09:25.262Z,32.56
2023-02-13T02:10:26.032Z,27.81
2023-02-13T02:11:25.168Z,34.33
2023-02-13T02:12:25.557Z,30.20
2023-02-13T02:13:25.107Z,25.54
2023-02-13T02:14:25.077Z,29.23
2023-02-13T02:15:25.075Z,28.24
2023-02-13T02:16:25.155Z,26.33
2023-02-13T02:17:25.020Z,28.54
2023-02-13T02:18:24.953Z,26.75
2023-02-13T02:19:24.915Z,28.68
2023-02-13T02:20:24.876Z,31.67
2023-02-13T02:21:24.845Z,31.52
2023-02-13T02:22:24.854Z,26.96
2023-02-13T02:23:24.809Z,28.06
2023-02-13T02:24:24.748Z,28.35
2023-02-13T02:25:24.723Z,29.86
2023-02-13T02:26:24.689Z,27.28
2023-02-13T02:27:24.657Z,25.78
2023-02-13T02:28:24.666Z,29.29
2023-02-13T02:29:24.597Z,28.99
2023-02-13T02:30:24.629Z,30.39
2023-02-13T02:31:25.117Z,28.87
2023-02-13T02:32:24.508Z,29.30
2023-02-13T02:33:24.484Z,27.53
2023-02-13T02:34:24.449Z,34.17
2023-02-13T02:35:24.446Z,26.30
2023-02-13T02:36:25.048Z,28.29
2023-02-13T02:37:25.052Z,29.74
2023-02-13T02:38:25.047Z,28.76
2023-02-13T02:39:24.287Z,29.75
2023-02-13T02:40:24.626Z,32.29
2023-02-13T02:41:24.217Z,26.38
2023-02-13T02:42:24.188Z,27.13
2023-02-13T02:43:24.161Z,29.02
2023-02-13T02:44:24.131Z,29.17
2023-02-13T02:45:24.087Z,29.71
2023-02-13T02:46:24.067Z,27.68
2023-02-13T02:47:24.056Z,29.79
2023-02-13T02:48:24.093Z,32.87
2023-02-13T02:49:23.959Z,32.50
2023-02-13T02:50:23.964Z,28.99
2023-02-13T02:51:23.907Z,29.47
2023-02-13T02:52:23.882Z,29.08
2023-02-13T02:53:26.553Z,28.94
2023-02-13T02:54:23.813Z,29.27
2023-02-13T02:55:23.837Z,29.66
2023-02-13T02:56:23.749Z,30.14
2023-02-13T02:57:23.712Z,27.35
2023-02-13T02:58:23.691Z,27.10
2023-02-13T02:59:24.551Z,28.14
2023-02-13T03:00:23.668Z,30.72
2023-02-13T03:01:23.666Z,33.01
2023-02-13T03:02:23.554Z,31.73
2023-02-13T03:03:23.616Z,32.54
2023-02-13T03:04:23.526Z,29.83
2023-02-13T03:05:23.457Z,32.27
2023-02-13T03:06:23.419Z,31.12
2023-02-13T03:07:23.395Z,29.30
2023-02-13T03:08:23.361Z,31.78
2023-02-13T03:09:23.336Z,30.00
2023-02-13T03:10:23.287Z,28.65
2023-02-13T03:11:23.239Z,29.20
2023-02-13T03:12:23.208Z,28.84
2023-02-13T03:13:23.249Z,32.03
2023-02-13T03:14:23.136Z,28.96
2023-02-13T03:15:23.093Z,28.62
2023-02-13T03:16:23.094Z,31.50
2023-02-13T03:17:23.017Z,26.58
2023-02-13T03:18:23.041Z,32.25
2023-02-13T03:19:22.977Z,31.35
2023-02-13T03:20:22.904Z,27.76
2023-02-13T03:21:22.894Z,31.35
2023-02-13T03:22:22.831Z,29.39
2023-02-13T03:23:22.795Z,28.08
2023-02-13T03:24:22.760Z,31.85
2023-02-13T03:25:22.730Z,30.55
2023-02-13T03:26:22.718Z,31.54
2023-02-13T03:27:22.647Z,32.37
2023-02-13T03:28:22.645Z,29.88
2023-02-13T03:29:22.579Z,32.16
2023-02-13T03:30:22.576Z,29.12
2023-02-13T03:31:22.600Z,29.82
2023-02-13T03:32:22.501Z,28.88
2023-02-13T03:33:22.426Z,33.66
2023-02-13T03:34:22.417Z,29.60
2023-02-13T03:35:22.376Z,29.88
2023-02-13T03:36:22.456Z,30.05
2023-02-13T03:37:22.280Z,34.19
2023-02-13T03:38:22.256Z,32.29
2023-02-13T03:39:22.250Z,31.48
2023-02-13T03:40:22.194Z,31.11
2023-02-13T03:41:22.200Z,34.07
2023-02-13T03:42:22.128Z,29.74
2023-02-13T03:43:22.085Z,28.88
2023-02-13T03:44:22.051Z,34.53
2023-02-13T03:45:22.015Z,29.86
2023-02-13T03:46:21.977Z,31.95
2023-02-13T03:47:21.950Z,30.26
2023-02-13T03:48:21.910Z,31.74
2023-02-13T03:49:21.877Z,34.27
2023-02-13T03:50:21.844Z,32.45
2023-02-13T03:51:21.843Z,29.87
2023-02-13T03:52:21.884Z,32.04
2023-02-13T03:53:21.743Z,30.27
2023-02-13T03:54:21.736Z,34.27
2023-02-13T03:55:21.677Z,31.65
2023-02-13T03:56:21.645Z,30.16
2023-02-13T03:57:21.629Z,33.65
2023-02-13T03:58:21.578Z,33.38
2023-02-13T03:59:21.571Z,31.48
2023-02-13T04:00:21.510Z,34.86
2023-02-13T04:01:21.497Z,27.87
2023-02-13T04:02:21.458Z,33.97
2023-02-13T04:03:21.411Z,33.32
2023-02-13T04:04:21.372Z,32.04
2023-02-13T04:05:21.332Z,32.36
2023-02-13T04:06:21.296Z,34.09
2023-02-13T04:07:21.289Z,34.85
2023-02-13T04:08:21.224Z,34.24
2023-02-13T04:09:21.267Z,36.29
2023-02-13T04:10:21.152Z,27.52
2023-02-13T04:11:21.124Z,30.71
2023-02-13T04:12:21.086Z,30.98
2023-02-13T04:13:21.059Z,34.36
2023-02-13T04:14:21.063Z,32.54
2023-02-13T04:15:21.006Z,34.84
2023-02-13T04:16:21.011Z,34.31
2023-02-13T04:17:20.949Z,34.26
2023-02-13T04:18:20.941Z,34.41
2023-02-13T04:19:21.117Z,31.73
2023-02-13T04:20:20.888Z,35.10
2023-02-13T04:21:20.819Z,33.38
2023-02-13T04:22:20.790Z,33.55
2023-02-13T04:23:20.782Z,31.05
2023-02-13T04:24:20.717Z,33.84
2023-02-13T04:25:20.680Z,33.33
2023-02-13T04:26:20.648Z,31.55
2023-02-13T04:27:20.636Z,35.44
2023-02-13T04:28:20.691Z,32.47
2023-02-13T04:29:20.553Z,32.19
2023-02-13T04:30:20.523Z,34.97
2023-02-13T04:31:20.711Z,35.42
2023-02-13T04:32:20.457Z,29.97
2023-02-13T04:33:20.432Z,33.89
2023-02-13T04:34:20.393Z,35.97
2023-02-13T04:35:20.370Z,33.62
2023-02-13T04:36:20.333Z,32.17
2023-02-13T04:37:20.341Z,33.98
2023-02-13T04:38:20.268Z,33.45
2023-02-13T04:39:20.259Z,33.70
2023-02-13T04:40:20.199Z,35.92
2023-02-13T04:41:20.166Z,36.50
2023-02-13T04:42:20.217Z,31.11
2023-02-13T04:43:20.101Z,33.84
2023-02-13T04:44:20.071Z,34.37
2023-02-13T04:45:20.031Z,34.02
2023-02-13T04:46:20.049Z,35.65
2023-02-13T04:47:19.958Z,36.22
2023-02-13T04:48:19.930Z,31.47
2023-02-13T04:49:19.905Z,28.67
2023-02-13T04:50:19.883Z,35.63
2023-02-13T04:51:19.819Z,36.90
2023-02-13T04:52:19.772Z,34.40
2023-02-13T04:53:19.742Z,36.97
2023-02-13T04:54:19.689Z,36.46
2023-02-13T04:55:19.727Z,34.98
2023-02-13T04:56:20.047Z,35.46
2023-02-13T04:57:19.581Z,35.67
2023-02-13T04:58:19.546Z,32.99
2023-02-13T04:59:19.516Z,35.27
2023-02-13T05:00:19.546Z,35.01
2023-02-13T05:01:19.510Z,34.59
2023-02-13T05:02:19.415Z,33.60
2023-02-13T05:03:19.381Z,35.60
2023-02-13T05:04:19.382Z,36.58
2023-02-13T05:05:19.336Z,32.88
2023-02-13T05:06:19.278Z,34.71
2023-02-13T05:07:19.243Z,33.30
2023-02-13T05:08:19.212Z,35.44
2023-02-13T05:09:20.098Z,32.30
2023-02-13T05:10:19.184Z,33.95
2023-02-13T05:11:19.128Z,38.17
2023-02-13T05:12:19.068Z,34.39
2023-02-13T05:13:19.031Z,33.05
2023-02-13T05:14:18.996Z,36.85
2023-02-13T05:15:18.993Z,33.74
2023-02-13T05:16:18.937Z,30.06
2023-02-13T05:17:18.882Z,34.74
2023-02-13T05:18:18.842Z,33.85
2023-02-13T05:19:18.869Z,36.25
2023-02-13T05:20:18.771Z,39.39
2023-02-13T05:21:18.747Z,35.92
2023-02-13T05:22:18.694Z,34.67
2023-02-13T05:23:18.658Z,36.78
2023-02-13T05:24:20.504Z,36.33
2023-02-13T05:25:18.609Z,36.98
2023-02-13T05:26:18.555Z,37.88
2023-02-13T05:27:18.555Z,33.78
2023-02-13T05:28:18.508Z,38.98
2023-02-13T05:29:18.439Z,37.30
2023-02-13T05:30:18.429Z,35.61
2023-02-13T05:31:18.684Z,40.05
2023-02-13T05:32:18.430Z,36.98
2023-02-13T05:33:18.300Z,34.75
2023-02-13T05:34:18.264Z,36.62
2023-02-13T05:35:18.613Z,38.92
2023-02-13T05:36:18.232Z,35.32
2023-02-13T05:37:18.164Z,38.34
2023-02-13T05:38:18.130Z,37.99
2023-02-13T05:39:18.095Z,36.74
2023-02-13T05:40:18.062Z,35.68
2023-02-13T05:41:18.023Z,38.13
2023-02-13T05:42:17.990Z,36.50
2023-02-13T05:43:17.991Z,36.74
2023-02-13T05:44:17.945Z,37.51
2023-02-13T05:45:17.874Z,38.90
2023-02-13T05:46:17.878Z,38.39
2023-02-13T05:47:17.800Z,37.77
2023-02-13T05:48:18.176Z,34.72
2023-02-13T05:49:17.731Z,38.24
2023-02-13T05:50:17.708Z,37.01
2023-02-13T05:51:17.670Z,38.02
2023-02-13T05:52:17.649Z,35.93
2023-02-13T05:53:17.598Z,37.01
2023-02-13T05:54:17.567Z,37.92
2023-02-13T05:55:17.521Z,35.94
2023-02-13T05:56:17.521Z,38.68
2023-02-13T05:57:17.454Z,35.34
2023-02-13T05:58:17.421Z,37.19
2023-02-13T05:59:17.452Z,36.15
2023-02-13T06:00:17.353Z,41.26
2023-02-13T06:01:17.316Z,37.02
2023-02-13T06:02:17.354Z,37.04
2023-02-13T06:03:17.242Z,36.06
2023-02-13T06:04:17.284Z,39.88
2023-02-13T06:05:17.173Z,37.86
2023-02-13T06:06:17.148Z,36.90
2023-02-13T06:07:17.091Z,39.35
2023-02-13T06:08:17.053Z,38.81
2023-02-13T06:09:17.027Z,41.32
2023-02-13T06:10:16.972Z,40.11
2023-02-13T06:11:16.964Z,39.50
2023-02-13T06:12:16.887Z,39.09
2023-02-13T06:13:16.859Z,37.40
2023-02-13T06:14:16.813Z,38.54
2023-02-13T06:15:16.807Z,37.67
2023-02-13T06:16:16.875Z,37.82
2023-02-13T06:17:16.706Z,38.04
2023-02-13T06:18:16.667Z,35.54
2023-02-13T06:19:16.631Z,38.51
2023-02-13T06:20:16.600Z,40.80
2023-02-13T06:21:16.593Z,37.42
2023-02-13T06:22:16.530Z,37.31
2023-02-13T06:23:16.487Z,40.20
2023-02-13T06:24:16.441Z,40.32
2023-02-13T06:25:16.406Z,39.19
2023-02-13T06:26:16.520Z,38.95
2023-02-13T06:27:16.341Z,40.71
2023-02-13T06:28:16.407Z,36.57
2023-02-13T06:29:16.264Z,41.17
2023-02-13T06:30:16.219Z,38.94
2023-02-13T06:31:16.311Z,37.24
2023-02-13T06:32:16.151Z,35.96
2023-02-13T06:33:16.097Z,39.78
2023-02-13T06:34:16.073Z,36.97
2023-02-13T06:35:16.019Z,41.24
2023-02-13T06:36:16.007Z,38.70
2023-02-13T06:37:15.940Z,37.78
2023-02-13T06:38:15.907Z,40.88
2023-02-13T06:39:15.857Z,39.72
2023-02-13T06:40:15.815Z,38.52
2023-02-13T06:41:15.822Z,39.45
2023-02-13T06:42:15.734Z,35.28
2023-02-13T06:43:15.701Z,37.51
2023-02-13T06:44:15.659Z,42.60
2023-02-13T06:45:18.135Z,42.38
2023-02-13T06:46:15.782Z,42.48
2023-02-13T06:47:15.587Z,42.55
2023-02-13T06:48:15.516Z,41.49
2023-02-13T06:49:15.483Z,38.45
2023-02-13T06:50:15.450Z,37.84
2023-02-13T06:51:15.440Z,40.87
2023-02-13T06:52:15.373Z,44.75
2023-02-13T06:53:15.365Z,40.24
2023-02-13T06:54:15.338Z,41.55
2023-02-13T06:55:16.130Z,39.39
2023-02-13T06:56:15.231Z,40.22
2023-02-13T06:57:15.233Z,40.97
2023-02-13T06:58:15.153Z,43.74
2023-02-13T06:59:15.151Z,43.53
2023-02-13T07:00:15.093Z,39.49
2023-02-13T07:01:15.141Z,38.11
2023-02-13T07:02:15.117Z,43.04
2023-02-13T07:03:15.025Z,42.46
2023-02-13T07:04:14.955Z,43.12
2023-02-13T07:05:15.664Z,39.81
2023-02-13T07:06:14.894Z,43.84
2023-02-13T07:07:14.859Z,42.58
2023-02-13T07:08:14.821Z,41.49
2023-02-13T07:09:14.785Z,43.07
2023-02-13T07:10:14.756Z,41.15
2023-02-13T07:11:14.757Z,42.51
2023-02-13T07:12:14.676Z,42.72
2023-02-13T07:13:14.692Z,42.66
2023-02-13T07:14:15.136Z,40.99
2023-02-13T07:15:14.569Z,40.19
2023-02-13T07:16:14.604Z,43.08
2023-02-13T07:17:14.531Z,39.56
2023-02-13T07:18:14.471Z,41.84
2023-02-13T07:19:14.465Z,41.16
2023-02-13T07:20:15.140Z,41.80
2023-02-13T07:21:14.379Z,40.87
2023-02-13T07:22:14.428Z,38.92
2023-02-13T07:23:14.311Z,41.67
2023-02-13T07:24:14.278Z,44.04
2023-02-13T07:25:17.139Z,43.82
2023-02-13T07:26:14.215Z,43.99
2023-02-13T07:27:14.235Z,44.09
2023-02-13T07:28:14.194Z,44.23
2023-02-13T07:29:14.644Z,42.94
2023-02-13T07:30:14.081Z,43.22
2023-02-13T07:31:14.216Z,42.24
2023-02-13T07:32:14.025Z,44.66
2023-02-13T07:33:14.015Z,43.39
2023-02-13T07:34:13.944Z,42.40
2023-02-13T07:35:13.935Z,45.59
2023-02-13T07:36:13.869Z,42.32
2023-02-13T07:37:13.840Z,46.15
2023-02-13T07:38:13.801Z,43.01
2023-02-13T07:39:13.761Z,41.99
2023-02-13T07:40:13.732Z,44.65
2023-02-13T07:41:13.698Z,42.80
2023-02-13T07:42:13.658Z,44.72
2023-02-13T07:43:13.621Z,45.35
2023-02-13T07:44:13.695Z,43.62
2023-02-13T07:45:14.151Z,44.67
2023-02-13T07:46:13.526Z,43.34
2023-02-13T07:47:13.484Z,42.23
2023-02-13T07:48:13.453Z,45.04
2023-02-13T07:49:13.460Z,42.47
2023-02-13T07:50:13.392Z,44.52
2023-02-13T07:51:13.385Z,43.37
2023-02-13T07:52:13.366Z,43.62
2023-02-13T07:53:13.285Z,46.40
2023-02-13T07:54:13.278Z,44.46
2023-02-13T07:55:13.221Z,42.16
2023-02-13T07:56:13.178Z,43.20
2023-02-13T07:57:13.202Z,46.14
2023-02-13T07:58:13.132Z,40.14
2023-02-13T07:59:13.064Z,46.06
2023-02-13T08:00:13.031Z,43.18
2023-02-13T08:01:12.987Z,45.40
2023-02-13T08:02:13.096Z,45.04
2023-02-13T08:03:12.917Z,44.69
2023-02-13T08:04:13.025Z,43.31
2023-02-13T08:05:12.844Z,41.35
2023-02-13T08:06:12.803Z,41.74
2023-02-13T08:07:12.801Z,44.90
2023-02-13T08:08:12.725Z,46.24
2023-02-13T08:09:12.695Z,45.28
2023-02-13T08:10:12.650Z,46.08
2023-02-13T08:11:12.612Z,43.71
2023-02-13T08:12:12.575Z,43.71
2023-02-13T08:13:12.579Z,44.12
2023-02-13T08:14:12.488Z,44.33
2023-02-13T08:15:12.478Z,47.52
2023-02-13T08:16:12.461Z,40.23
2023-02-13T08:17:12.400Z,48.65
2023-02-13T08:18:12.683Z,42.98
2023-02-13T08:19:12.317Z,46.16
2023-02-13T08:20:12.262Z,44.22
2023-02-13T08:21:12.238Z,42.65
2023-02-13T08:22:12.185Z,43.82
2023-02-13T08:23:12.279Z,45.05
2023-02-13T08:24:12.114Z,43.23
2023-02-13T08:25:12.075Z,44.52
2023-02-13T08:26:12.039Z,45.92
2023-02-13T08:27:12.045Z,42.35
2023-02-13T08:28:12.032Z,47.50
2023-02-13T08:29:12.006Z,42.93
2023-02-13T08:30:11.929Z,43.33
2023-02-13T08:31:12.088Z,44.17
2023-02-13T08:32:11.858Z,46.35
2023-02-13T08:33:12.663Z,46.82
2023-02-13T08:34:11.759Z,42.35
2023-02-13T08:35:11.733Z,44.93
2023-02-13T08:36:11.676Z,43.48
2023-02-13T08:37:12.188Z,44.70
2023-02-13T08:38:11.590Z,47.04
2023-02-13T08:39:11.589Z,47.22
2023-02-13T08:40:11.546Z,46.92
2023-02-13T08:41:12.169Z,46.99
2023-02-13T08:42:15.693Z,45.92
2023-02-13T08:43:11.417Z,46.29
2023-02-13T08:44:11.379Z,46.66
2023-02-13T08:45:12.212Z,48.46
2023-02-13T08:46:11.363Z,51.00
2023-02-13T08:47:11.235Z,49.48
2023-02-13T08:48:11.194Z,46.08
2023-02-13T08:49:11.160Z,45.78
2023-02-13T08:50:11.670Z,50.55
2023-02-13T08:51:11.113Z,47.95
2023-02-13T08:52:11.042Z,47.76
2023-02-13T08:53:11.014Z,48.30
2023-02-13T08:54:10.980Z,46.78
2023-02-13T08:55:10.948Z,48.65
2023-02-13T08:56:10.890Z,49.83
2023-02-13T08:57:10.846Z,47.58
2023-02-13T08:58:10.808Z,46.79
2023-02-13T08:59:10.773Z,49.76
2023-02-13T09:00:10.756Z,48.65
2023-02-13T09:01:10.771Z,41.94
2023-02-13T09:02:10.665Z,47.66
2023-02-13T09:03:10.648Z,47.17
2023-02-13T09:04:10.726Z,50.06
2023-02-13T09:05:10.562Z,49.93
2023-02-13T09:06:10.516Z,47.10
2023-02-13T09:07:10.484Z,50.32
2023-02-13T09:08:10.434Z,44.03
2023-02-13T09:09:10.430Z,50.95
2023-02-13T09:10:10.380Z,46.73
2023-02-13T09:11:10.336Z,45.38
2023-02-13T09:12:10.281Z,50.00
2023-02-13T09:13:10.311Z,42.67
2023-02-13T09:14:10.191Z,48.19
2023-02-13T09:15:10.182Z,52.96
2023-02-13T09:16:10.130Z,48.00
2023-02-13T09:17:10.107Z,47.32
2023-02-13T09:18:10.043Z,49.54
2023-02-13T09:19:10.010Z,47.20
2023-02-13T09:20:10.053Z,50.63
2023-02-13T09:21:09.932Z,47.87
2023-02-13T09:22:09.894Z,47.30
2023-02-13T09:23:09.856Z,49.10
2023-02-13T09:24:09.818Z,48.73
2023-02-13T09:25:09.766Z,51.67
2023-02-13T09:26:09.728Z,45.66
2023-02-13T09:27:09.749Z,47.99
2023-02-13T09:28:09.824Z,47.97
2023-02-13T09:29:10.187Z,49.35
2023-02-13T09:30:09.571Z,48.39
2023-02-13T09:31:09.685Z,47.64
2023-02-13T09:32:09.525Z,45.57
2023-02-13T09:33:09.463Z,49.09
2023-02-13T09:34:09.423Z,51.68
2023-02-13T09:35:09.397Z,49.52
2023-02-13T09:36:09.322Z,47.58
2023-02-13T09:37:09.279Z,49.46
2023-02-13T09:38:09.233Z,46.00
2023-02-13T09:39:09.188Z,47.62
2023-02-13T09:40:09.206Z,48.81
2023-02-13T09:41:09.105Z,50.70
2023-02-13T09:42:09.053Z,50.83
2023-02-13T09:43:09.043Z,49.01
2023-02-13T09:44:08.969Z,48.52
2023-02-13T09:45:08.946Z,47.25
2023-02-13T09:46:08.913Z,48.56
2023-02-13T09:47:08.842Z,47.60
2023-02-13T09:48:08.774Z,49.82
2023-02-13T09:49:08.736Z,52.42
2023-02-13T09:50:08.714Z,48.14
2023-02-13T09:51:08.641Z,48.64
2023-02-13T09:52:08.593Z,53.10
2023-02-13T09:53:08.546Z,50.11
2023-02-13T09:54:08.501Z,51.41
2023-02-13T09:55:08.467Z,50.04
2023-02-13T09:56:08.469Z,51.98
2023-02-13T09:57:08.374Z,51.76
2023-02-13T09:58:08.334Z,51.05
2023-02-13T09:59:08.327Z,51.50
2023-02-13T10:00:08.262Z,52.12
2023-02-13T10:01:08.232Z,48.66
2023-02-13T10:02:08.186Z,48.76
2023-02-13T10:03:08.131Z,51.84
2023-02-13T10:04:08.090Z,49.61
2023-02-13T10:05:08.133Z,47.76
2023-02-13T10:06:08.069Z,50.46
2023-02-13T10:07:07.964Z,49.04
2023-02-13T10:08:07.921Z,49.09
2023-02-13T10:09:07.870Z,50.52
2023-02-13T10:10:07.854Z,49.02
2023-02-13T10:11:07.778Z,48.16
2023-02-13T10:12:07.729Z,53.91
2023-02-13T10:13:07.690Z,51.50
2023-02-13T10:14:07.645Z,48.57
2023-02-13T10:15:07.678Z,48.74
2023-02-13T10:16:07.644Z,49.50
2023-02-13T10:17:07.522Z,51.07
2023-02-13T10:18:07.456Z,48.88
2023-02-13T10:19:07.405Z,49.93
2023-02-13T10:20:07.397Z,49.87
2023-02-13T10:21:07.321Z,45.63
2023-02-13T10:22:07.273Z,49.83
2023-02-13T10:23:07.237Z,47.18
2023-02-13T10:24:07.232Z,48.73
2023-02-13T10:25:07.134Z,48.87
2023-02-13T10:26:07.093Z,48.78
2023-02-13T10:27:07.055Z,49.86
2023-02-13T10:28:07.111Z,52.75
2023-02-13T10:29:06.992Z,50.01
2023-02-13T10:30:07.065Z,50.87
2023-02-13T10:31:07.131Z,50.69
2023-02-13T10:32:06.983Z,54.33
2023-02-13T10:33:06.838Z,51.12
2023-02-13T10:34:06.757Z,49.89
2023-02-13T10:35:09.714Z,51.49
2023-02-13T10:36:06.683Z,51.66
2023-02-13T10:37:06.623Z,51.54
2023-02-13T10:38:06.584Z,51.35
2023-02-13T10:39:06.536Z,51.31
2023-02-13T10:40:06.493Z,49.95
2023-02-13T10:41:06.463Z,50.85
2023-02-13T10:42:06.408Z,50.35
2023-02-13T10:43:06.369Z,51.86
2023-02-13T10:44:06.318Z,51.13
2023-02-13T10:45:07.215Z,53.67
2023-02-13T10:46:06.288Z,51.39
2023-02-13T10:47:06.220Z,53.37
2023-02-13T10:48:06.161Z,54.39
2023-02-13T10:49:06.144Z,54.81
2023-02-13T10:50:06.069Z,50.66
2023-02-13T10:51:06.037Z,50.48
2023-02-13T10:52:05.995Z,52.00
2023-02-13T10:53:05.952Z,51.21
2023-02-13T10:54:05.894Z,49.65
2023-02-13T10:55:05.922Z,52.52
2023-02-13T10:56:05.812Z,50.62
2023-02-13T10:57:05.766Z,52.05
2023-02-13T10:58:05.714Z,51.34
2023-02-13T10:59:05.672Z,51.76
2023-02-13T11:00:05.655Z,52.60
2023-02-13T11:01:05.672Z,50.95
2023-02-13T11:02:05.556Z,48.99
2023-02-13T11:03:05.544Z,51.30
2023-02-13T11:04:05.485Z,51.09
2023-02-13T11:05:05.421Z,51.23
2023-02-13T11:06:05.381Z,48.84
2023-02-13T11:07:05.373Z,51.87
2023-02-13T11:08:05.303Z,48.94
2023-02-13T11:09:05.255Z,48.84
2023-02-13T11:10:05.216Z,50.14
2023-02-13T11:11:05.192Z,50.74
2023-02-13T11:12:05.133Z,51.52
2023-02-13T11:13:05.106Z,48.12
2023-02-13T11:14:05.129Z,49.81
2023-02-13T11:15:05.008Z,50.95
2023-02-13T11:16:05.263Z,49.47
2023-02-13T11:17:05.004Z,50.30
2023-02-13T11:18:04.885Z,51.66
2023-02-13T11:19:04.878Z,51.33
2023-02-13T11:20:04.810Z,50.66
2023-02-13T11:21:04.767Z,49.21
2023-02-13T11:22:04.756Z,52.45
2023-02-13T11:23:04.679Z,50.97
2023-02-13T11:24:04.645Z,51.28
2023-02-13T11:25:04.596Z,50.57
2023-02-13T11:26:04.549Z,48.95
2023-02-13T11:27:04.572Z,48.91
2023-02-13T11:28:04.495Z,50.64
2023-02-13T11:29:04.420Z,48.10
2023-02-13T11:30:07.232Z,49.70
2023-02-13T11:31:04.439Z,49.93
2023-02-13T11:32:04.533Z,50.50
2023-02-13T11:33:04.267Z,51.04
2023-02-13T11:34:04.225Z,50.99
2023-02-13T11:35:04.318Z,52.00
2023-02-13T11:36:04.162Z,51.57
2023-02-13T11:37:04.114Z,54.23
2023-02-13T11:38:04.075Z,55.15
2023-02-13T11:39:04.039Z,50.38
2023-02-13T11:40:03.998Z,49.06
2023-02-13T11:41:03.974Z,51.34
2023-02-13T11:42:03.920Z,47.89
2023-02-13T11:43:03.886Z,50.55
2023-02-13T11:44:03.840Z,50.06
2023-02-13T11:45:03.848Z,50.71
2023-02-13T11:46:03.765Z,50.14
2023-02-13T11:47:03.880Z,47.64
2023-02-13T11:48:06.234Z,48.50
2023-02-13T11:49:03.656Z,48.72
2023-02-13T11:50:03.607Z,49.65
2023-02-13T11:51:03.622Z,50.26
2023-02-13T11:52:03.603Z,50.90
2023-02-13T11:53:04.236Z,51.07
2023-02-13T11:54:03.442Z,52.49
2023-02-13T11:55:05.328Z,51.84
2023-02-13T11:56:03.363Z,56.77
2023-02-13T11:57:05.287Z,56.67
2023-02-13T11:58:03.288Z,56.76
2023-02-13T11:59:03.387Z,54.24
2023-02-13T12:00:03.226Z,54.06
2023-02-13T12:01:03.179Z,52.00
2023-02-13T12:02:03.154Z,50.49
2023-02-13T12:03:03.261Z,50.52
2023-02-13T12:04:03.107Z,50.08
2023-02-13T12:05:03.099Z,48.75
2023-02-13T12:06:03.021Z,50.22
2023-02-13T12:07:02.989Z,52.82
2023-02-13T12:08:02.923Z,49.75
2023-02-13T12:09:02.889Z,52.29
2023-02-13T12:10:02.899Z,48.88
2023-02-13T12:11:02.830Z,49.52
2023-02-13T12:12:02.810Z,51.06
2023-02-13T12:13:02.723Z,54.59
2023-02-13T12:14:02.688Z,50.45
2023-02-13T12:15:02.637Z,52.45
2023-02-13T12:16:02.857Z,47.78
2023-02-13T12:17:02.562Z,51.54
2023-02-13T12:18:02.545Z,50.57
2023-02-13T12:19:02.484Z,51.04
2023-02-13T12:20:02.502Z,51.64
2023-02-13T12:21:02.402Z,47.16
2023-02-13T12:22:02.382Z,49.75
2023-02-13T12:23:02.341Z,50.92
2023-02-13T12:24:02.266Z,52.32
2023-02-13T12:25:02.221Z,50.55
2023-02-13T12:26:02.397Z,49.91
2023-02-13T12:27:02.181Z,48.92
2023-02-13T12:28:02.406Z,47.71
2023-02-13T12:29:02.076Z,53.21
2023-02-13T12:30:02.020Z,51.23
2023-02-13T12:31:02.361Z,50.76
2023-02-13T12:32:01.948Z,50.16
2023-02-13T12:33:01.853Z,50.94
2023-02-13T12:34:01.806Z,50.48
2023-02-13T12:35:01.788Z,51.33
2023-02-13T12:36:01.738Z,50.54
2023-02-13T12:37:01.673Z,50.56
2023-02-13T12:38:01.666Z,50.30
2023-02-13T12:39:01.615Z,51.56
2023-02-13T12:40:01.534Z,47.86
2023-02-13T12:41:01.666Z,49.64
2023-02-13T12:42:01.463Z,47.98
2023-02-13T12:43:01.497Z,48.42
2023-02-13T12:44:01.370Z,48.99
2023-02-13T12:45:01.312Z,49.21
2023-02-13T12:46:01.328Z,53.02
2023-02-13T12:47:01.227Z,51.11
2023-02-13T12:48:01.180Z,50.69
2023-02-13T12:49:01.133Z,49.66
2023-02-13T12:50:01.098Z,50.84
2023-02-13T12:51:01.052Z,49.42
2023-02-13T12:52:01.010Z,50.59
2023-02-13T12:53:00.964Z,49.61
2023-02-13T12:54:00.913Z,49.58
2023-02-13T12:55:00.899Z,46.66
2023-02-13T12:56:00.830Z,46.20
2023-02-13T12:57:00.785Z,53.05
2023-02-13T12:58:00.760Z,50.08
2023-02-13T12:59:00.716Z,48.56
2023-02-13T13:00:00.664Z,51.49
2023-02-13T13:01:01.619Z,49.62
2023-02-13T13:02:00.673Z,52.21
2023-02-13T13:03:00.767Z,52.41
2023-02-13T13:04:00.516Z,49.16
2023-02-13T13:05:00.457Z,52.40
2023-02-13T13:06:10.923Z,49.20
2023-02-13T13:07:00.374Z,49.56
2023-02-13T13:08:00.328Z,50.46
2023-02-13T13:09:00.298Z,50.17
2023-02-13T13:10:00.248Z,49.11
2023-02-13T13:11:00.547Z,51.76
2023-02-13T13:12:00.164Z,54.63
2023-02-13T13:13:00.117Z,52.36
2023-02-13T13:14:00.133Z,52.12
2023-02-13T13:15:00.035Z,52.03
2023-02-13T13:15:59.993Z,47.01
2023-02-13T13:17:00.049Z,51.23
2023-02-13T13:17:59.910Z,49.94
2023-02-13T13:18:59.871Z,49.56
2023-02-13T13:19:59.847Z,49.94
2023-02-13T13:21:00.171Z,47.59
2023-02-13T13:21:59.737Z,49.27
2023-02-13T13:22:59.707Z,48.45
2023-02-13T13:23:59.662Z,51.19
2023-02-13T13:24:59.624Z,48.19
2023-02-13T13:25:59.598Z,50.86
2023-02-13T13:26:59.557Z,48.68
2023-02-13T13:27:59.480Z,50.51
2023-02-13T13:28:59.473Z,50.36
2023-02-13T13:29:59.485Z,49.68
2023-02-13T13:30:59.768Z,50.38
2023-02-13T13:31:59.373Z,47.84
2023-02-13T13:32:59.263Z,51.35
2023-02-13T13:33:59.275Z,49.41
2023-02-13T13:34:59.182Z,50.06
2023-02-13T13:35:59.145Z,47.60
2023-02-13T13:36:59.103Z,50.70
2023-02-13T13:37:59.064Z,50.18
2023-02-13T13:39:01.404Z,50.37
2023-02-13T13:39:58.974Z,50.44
2023-02-13T13:40:59.314Z,50.42
2023-02-13T13:41:58.893Z,52.58
2023-02-13T13:42:58.873Z,51.86